Time;durP1;ratioP1;P1;durP2;ratioP2;P2;SDS_P1;SDS_P2;PMS_P1;PMS_P2;Temp;Humidity;BMP_temperature;BMP_pressure;BME280_temperature;BME280_humidity;BME280_pressure;Samples;Min_cycle;Max_cycle;Signal;HPM_P1;HPM_P2
2023/10/19 00:00:49;;;;;;;1414.83;491.67;;;8.10;99.90;;;;;;5143366;27;21572;-85
2023/10/19 00:03:17;;;;;;;1468.50;515.53;;;8.10;99.90;;;;;;5136651;27;20057;-85
2023/10/19 00:05:47;;;;;;;1413.77;490.73;;;7.90;99.90;;;;;;5155326;27;20046;-85
2023/10/19 00:08:23;;;;;;;1464.63;516.30;;;7.90;99.90;;;;;;5163719;27;20041;-84
2023/10/19 00:11:04;;;;;;;1414.53;495.23;;;7.90;99.90;;;;;;5157421;27;20104;-84
2023/10/19 00:13:30;;;;;;;1452.33;511.10;;;8.60;99.90;;;;;;5136282;27;20491;-84
2023/10/19 00:15:57;;;;;;;1418.50;497.57;;;7.80;99.90;;;;;;5136807;27;20043;-85
2023/10/19 00:18:24;;;;;;;1457.07;510.83;;;8.40;99.90;;;;;;5136655;27;20055;-85
2023/10/19 00:20:52;;;;;;;1419.70;499.67;;;8.40;99.90;;;;;;5136876;27;20391;-85
2023/10/19 00:23:28;;;;;;;1462.40;515.53;;;8.40;99.90;;;;;;5137126;27;20041;-84
2023/10/19 00:25:58;;;;;;;1468.40;518.70;;;8.20;99.90;;;;;;5155289;27;20050;-85
2023/10/19 00:28:28;;;;;;;1463.77;514.90;;;7.80;99.90;;;;;;5136697;27;20145;-84
2023/10/19 00:30:59;;;;;;;1420.87;497.37;;;8.10;99.90;;;;;;5136619;27;20099;-84
2023/10/19 00:33:28;;;;;;;1416.37;492.73;;;8.00;99.90;;;;;;5135763;27;20042;-84
2023/10/19 00:36:00;;;;;;;1459.10;510.67;;;8.30;99.90;;;;;;5136364;27;20051;-85
2023/10/19 00:43:42;;;;;;;1412.80;496.88;;;8.10;99.90;;;;;;5149496;27;20578;-85
2023/10/19 00:48:48;;;;;;;1409.17;494.47;;;7.70;99.90;;;;;;5136324;27;20053;-85
2023/10/19 00:54:21;;;;;;;1415.07;500.03;;;8.10;99.90;;;;;;5073380;28;20064;-85
2023/10/19 00:56:51;;;;;;;1404.27;488.40;;;7.70;99.90;;;;;;5091520;28;20059;-84
2023/10/19 00:59:29;;;;;;;1403.87;497.97;;;7.70;99.90;;;;;;5090706;28;20047;-85
2023/10/19 01:02:16;;;;;;;1433.37;506.50;;;8.40;99.90;;;;;;5073871;28;20500;-84
2023/10/19 01:04:44;;;;;;;1439.43;513.83;;;8.40;99.90;;;;;;5090220;28;20507;-84
2023/10/19 01:07:45;;;;;;;1444.73;514.63;;;8.30;99.90;;;;;;5090381;28;20115;-84
2023/10/19 01:10:19;;;;;;;1405.30;491.23;;;7.80;99.90;;;;;;5069680;28;20497;-84
2023/10/19 01:12:45;;;;;;;1438.60;508.23;;;7.80;99.90;;;;;;5074288;28;20126;-84
2023/10/19 01:17:46;;;;;;;1405.97;493.10;;;7.70;99.90;;;;;;5090186;28;20505;-86
2023/10/19 01:20:33;;;;;;;1446.70;514.27;;;8.50;99.90;;;;;;5074282;28;20036;-84
2023/10/19 01:25:50;;;;;;;1451.53;512.20;;;7.70;99.90;;;;;;5091394;28;20475;-86
2023/10/19 01:28:17;;;;;;;1415.93;496.70;;;7.80;99.90;;;;;;5068657;28;20084;-84
2023/10/19 01:30:46;;;;;;;1421.07;494.77;;;7.80;99.90;;;;;;5096532;28;20047;-86
2023/10/19 01:33:18;;;;;;;1409.33;496.93;;;7.70;99.90;;;;;;5133369;28;20484;-85
2023/10/19 01:38:33;;;;;;;1460.77;517.27;;;8.50;99.90;;;;;;5135254;27;20081;-85
2023/10/19 01:41:00;;;;;;;1460.43;517.90;;;7.70;99.90;;;;;;5154441;27;20034;-85
2023/10/19 01:43:30;;;;;;;1457.17;514.37;;;8.60;99.90;;;;;;5153895;27;20490;-84
2023/10/19 01:45:58;;;;;;;1405.37;489.00;;;7.70;99.90;;;;;;5135791;27;20039;-85
2023/10/19 01:48:35;;;;;;;1407.23;496.30;;;8.00;99.90;;;;;;5134959;27;20500;-85
2023/10/19 01:51:05;;;;;;;1409.17;500.70;;;8.40;99.90;;;;;;5154105;27;20099;-85
2023/10/19 01:53:43;;;;;;;1404.23;488.50;;;7.70;99.90;;;;;;5170804;27;20085;-85
2023/10/19 01:56:09;;;;;;;1459.07;518.37;;;8.40;99.90;;;;;;5174936;27;20070;-85
2023/10/19 01:58:39;;;;;;;1457.57;516.17;;;7.70;99.90;;;;;;5162901;27;20046;-85
2023/10/19 02:01:08;;;;;;;1451.53;512.60;;;8.20;99.90;;;;;;5133093;27;20039;-86
2023/10/19 02:03:36;;;;;;;1405.43;494.90;;;7.70;99.90;;;;;;5164563;27;20042;-84
2023/10/19 02:06:20;;;;;;;1399.47;486.40;;;7.70;99.90;;;;;;5178483;27;20046;-85
2023/10/19 02:09:00;;;;;;;1409.33;492.20;;;7.70;99.90;;;;;;5171222;27;20380;-85
2023/10/19 02:11:28;;;;;;;1407.73;487.47;;;7.70;99.90;;;;;;5118103;27;20058;-84
2023/10/19 02:13:55;;;;;;;1403.20;490.20;;;8.50;99.90;;;;;;5129650;27;20043;-85
2023/10/19 02:16:22;;;;;;;1403.90;492.30;;;8.00;99.90;;;;;;5118481;27;20062;-85
2023/10/19 02:18:52;;;;;;;1454.13;520.00;;;8.00;99.90;;;;;;5123110;27;20483;-85
2023/10/19 02:21:30;;;;;;;1407.43;491.00;;;8.00;99.90;;;;;;5126641;27;20047;-85
2023/10/19 02:24:00;;;;;;;1451.70;516.13;;;8.50;99.90;;;;;;5136467;27;20043;-85
2023/10/19 02:26:26;;;;;;;1397.03;486.00;;;8.40;99.90;;;;;;5135217;27;20052;-85
2023/10/19 02:28:52;;;;;;;1402.47;495.87;;;8.10;99.90;;;;;;5118003;27;20075;-84
2023/10/19 02:31:23;;;;;;;1449.17;517.83;;;8.40;99.90;;;;;;5117351;27;20080;-85
2023/10/19 02:33:52;;;;;;;1452.13;521.13;;;8.60;99.90;;;;;;5136884;27;20548;-85
2023/10/19 02:36:19;;;;;;;1398.93;493.17;;;8.30;99.90;;;;;;5134948;27;20043;-84
2023/10/19 02:38:50;;;;;;;1450.63;516.60;;;7.70;99.90;;;;;;5136242;27;20047;-84
2023/10/19 02:41:20;;;;;;;1428.00;512.27;;;8.30;99.90;;;;;;5135475;27;20456;-85
2023/10/19 02:44:09;;;;;;;1416.30;508.33;;;7.80;99.90;;;;;;5135142;27;20135;-84
2023/10/19 02:46:32;;;;;;;1407.80;507.33;;;7.70;99.90;;;;;;5134219;27;20129;-85
2023/10/19 02:49:04;;;;;;;1414.20;503.67;;;8.30;99.90;;;;;;5147887;27;20457;-85
2023/10/19 02:51:30;;;;;;;1435.70;510.53;;;7.70;99.90;;;;;;5147157;27;20043;-84
2023/10/19 02:54:00;;;;;;;1438.10;508.40;;;7.70;99.90;;;;;;5134713;27;20391;-84
2023/10/19 02:56:27;;;;;;;1405.83;497.23;;;8.00;99.90;;;;;;5134848;27;20046;-84
2023/10/19 02:58:52;;;;;;;1455.23;516.00;;;8.30;99.90;;;;;;5134940;27;20134;-84
2023/10/19 03:01:21;;;;;;;1413.57;506.53;;;7.70;99.90;;;;;;5134363;27;20121;-84
2023/10/19 03:03:50;;;;;;;1422.93;513.37;;;8.60;99.90;;;;;;5134295;27;20039;-85
2023/10/19 03:06:23;;;;;;;1379.60;495.80;;;8.30;99.90;;;;;;5117444;27;20122;-85
2023/10/19 03:09:01;;;;;;;1319.63;478.93;;;7.80;99.90;;;;;;5117658;27;20130;-84
2023/10/19 03:11:30;;;;;;;1270.83;466.00;;;8.50;99.90;;;;;;5134354;27;20058;-84
2023/10/19 03:13:57;;;;;;;1309.53;474.37;;;8.30;99.90;;;;;;5134200;27;20047;-86
2023/10/19 03:16:23;;;;;;;1286.77;466.23;;;8.60;99.90;;;;;;5135498;27;20039;-86
2023/10/19 03:18:52;;;;;;;1277.20;464.43;;;7.60;99.90;;;;;;5135690;27;20043;-86
2023/10/19 03:21:19;;;;;;;1296.67;489.50;;;8.40;99.90;;;;;;5116935;27;20089;-85
2023/10/19 03:23:45;;;;;;;1391.13;500.40;;;7.70;99.90;;;;;;5133457;27;20499;-84
2023/10/19 03:28:55;;;;;;;1419.47;501.77;;;8.10;99.90;;;;;;5133995;27;20050;-85
2023/10/19 03:31:25;;;;;;;1411.60;495.57;;;8.40;99.90;;;;;;5133849;27;20047;-86
2023/10/19 03:33:55;;;;;;;1411.43;485.40;;;7.60;99.90;;;;;;5145127;27;20042;-86
2023/10/19 03:36:24;;;;;;;1423.77;486.93;;;8.00;99.90;;;;;;5133880;27;20082;-86
2023/10/19 03:38:52;;;;;;;1459.80;515.57;;;7.70;99.90;;;;;;5134150;27;20444;-86
2023/10/19 03:41:21;;;;;;;1450.27;508.63;;;8.50;99.90;;;;;;5134016;27;20045;-86
2023/10/19 03:43:49;;;;;;;1407.33;495.07;;;8.20;99.90;;;;;;5116154;27;20126;-85
2023/10/19 03:46:28;;;;;;;1406.23;490.57;;;7.70;99.90;;;;;;5133083;27;20039;-86
2023/10/19 03:48:58;;;;;;;1455.20;509.93;;;7.70;99.90;;;;;;5114278;28;20087;-85
2023/10/19 03:51:26;;;;;;;1457.13;515.67;;;8.20;99.90;;;;;;5096207;27;20446;-85
2023/10/19 03:54:00;;;;;;;1461.30;514.17;;;8.10;99.90;;;;;;5136866;27;20094;-85
2023/10/19 03:56:26;;;;;;;1416.07;493.83;;;8.10;99.90;;;;;;5136964;27;20070;-85
2023/10/19 03:58:52;;;;;;;1452.87;515.80;;;8.60;99.90;;;;;;5110242;27;20086;-86
2023/10/19 04:01:19;;;;;;;1451.83;511.80;;;7.60;99.90;;;;;;5133338;27;20051;-85
2023/10/19 04:03:45;;;;;;;1452.17;516.37;;;7.60;99.90;;;;;;5133287;27;20099;-85
2023/10/19 04:06:14;;;;;;;1395.90;490.23;;;8.20;99.90;;;;;;5142295;27;20491;-85
2023/10/19 04:08:42;;;;;;;1453.47;525.57;;;8.50;99.90;;;;;;5131945;27;20047;-85
2023/10/19 04:11:12;;;;;;;1450.10;528.10;;;7.60;99.90;;;;;;5132348;27;20051;-84
2023/10/19 04:13:38;;;;;;;1388.73;499.97;;;7.70;99.90;;;;;;5132839;27;20058;-85
2023/10/19 04:16:10;;;;;;;1440.93;519.37;;;8.20;99.90;;;;;;5132360;27;20046;-85
2023/10/19 04:18:38;;;;;;;1437.90;524.17;;;8.40;99.90;;;;;;5132676;27;20053;-85
2023/10/19 04:21:04;;;;;;;1379.20;499.20;;;8.50;99.90;;;;;;5133188;27;20399;-86
2023/10/19 04:23:34;;;;;;;1376.50;493.77;;;7.80;99.90;;;;;;5154435;27;20047;-85
2023/10/19 04:26:05;;;;;;;1381.27;511.93;;;7.80;99.90;;;;;;5118407;27;20129;-85
2023/10/19 04:28:37;;;;;;;1426.30;521.67;;;7.80;99.90;;;;;;5115113;27;20479;-85
2023/10/19 04:31:06;;;;;;;1434.57;518.70;;;7.90;99.90;;;;;;5115761;27;20108;-85
2023/10/19 04:33:32;;;;;;;1416.57;503.83;;;8.20;99.90;;;;;;5149356;27;20484;-85
2023/10/19 04:36:00;;;;;;;1420.10;515.17;;;8.00;99.90;;;;;;5153045;27;20055;-84
2023/10/19 04:38:27;;;;;;;1415.30;521.23;;;8.50;99.90;;;;;;5126147;27;20372;-84
2023/10/19 04:40:52;;;;;;;1389.73;500.63;;;7.80;99.90;;;;;;5133000;27;20407;-84
2023/10/19 04:43:19;;;;;;;1403.63;505.77;;;8.00;99.90;;;;;;5133995;27;20039;-85
2023/10/19 04:45:44;;;;;;;1410.20;504.57;;;8.50;99.90;;;;;;5132729;27;20503;-84
2023/10/19 04:48:10;;;;;;;1402.23;501.80;;;8.20;99.90;;;;;;5129001;27;20131;-85
2023/10/19 04:50:36;;;;;;;1418.17;503.87;;;8.20;99.90;;;;;;5128094;27;20393;-85
2023/10/19 04:53:02;;;;;;;1410.30;504.43;;;8.20;99.90;;;;;;5116722;27;20039;-85
2023/10/19 04:55:30;;;;;;;1411.87;499.87;;;7.60;99.90;;;;;;5132622;27;20629;-84
2023/10/19 04:57:56;;;;;;;1413.57;512.93;;;7.80;99.90;;;;;;5133651;27;20495;-84
2023/10/19 05:00:24;;;;;;;1423.63;505.33;;;7.80;99.90;;;;;;5130039;27;20043;-84
2023/10/19 05:02:51;;;;;;;1409.00;510.20;;;7.80;99.90;;;;;;5128973;27;20144;-85
2023/10/19 05:05:18;;;;;;;1396.00;505.07;;;8.60;99.90;;;;;;5111849;28;20131;-84
2023/10/19 05:07:44;;;;;;;1402.23;500.20;;;7.80;99.90;;;;;;5149826;27;20367;-85
2023/10/19 05:10:12;;;;;;;1406.63;497.93;;;7.80;99.90;;;;;;5140325;27;20039;-84
2023/10/19 05:12:37;;;;;;;1407.43;510.00;;;7.80;99.90;;;;;;5132191;27;20487;-85
2023/10/19 05:15:05;;;;;;;1400.33;497.63;;;8.40;99.90;;;;;;5133652;27;20042;-84
2023/10/19 05:17:31;;;;;;;1402.60;501.67;;;7.80;99.90;;;;;;5132149;27;20043;-84
2023/10/19 05:19:57;;;;;;;1407.30;496.70;;;7.90;99.90;;;;;;5117180;28;20521;-84
2023/10/19 05:22:24;;;;;;;1401.27;498.27;;;7.80;99.90;;;;;;5132494;28;20126;-84
2023/10/19 05:24:50;;;;;;;1415.17;496.67;;;8.80;99.90;;;;;;5114714;28;20483;-84
2023/10/19 05:27:17;;;;;;;1398.90;501.23;;;8.60;99.90;;;;;;5131964;28;20085;-84
2023/10/19 05:29:43;;;;;;;1409.43;498.50;;;8.50;99.90;;;;;;5132040;28;20047;-84
2023/10/19 05:32:09;;;;;;;1391.87;495.40;;;8.30;99.90;;;;;;5133565;28;20494;-84
2023/10/19 05:34:35;;;;;;;1420.13;500.57;;;7.80;99.90;;;;;;5138044;27;20081;-84
2023/10/19 05:37:05;;;;;;;1411.93;506.77;;;7.90;99.90;;;;;;5154144;27;20488;-84
2023/10/19 05:39:33;;;;;;;1408.97;497.63;;;7.90;99.90;;;;;;5141876;27;20071;-84
2023/10/19 05:42:00;;;;;;;1413.60;493.53;;;7.80;99.90;;;;;;5136080;27;20050;-84
2023/10/19 05:44:27;;;;;;;1421.23;505.50;;;8.30;99.90;;;;;;5137164;27;20380;-84
2023/10/19 05:46:54;;;;;;;1412.07;494.00;;;8.70;99.90;;;;;;5154785;27;20046;-85
2023/10/19 05:49:20;;;;;;;1421.40;505.50;;;8.60;99.90;;;;;;5156666;27;20139;-84
2023/10/19 05:51:46;;;;;;;1379.50;489.30;;;8.40;99.90;;;;;;5158146;27;20121;-85
2023/10/19 05:54:12;;;;;;;1409.30;500.57;;;8.70;99.90;;;;;;5152592;27;20392;-84
2023/10/19 05:56:38;;;;;;;1411.07;502.33;;;7.80;99.90;;;;;;5146233;27;20043;-86
2023/10/19 05:59:05;;;;;;;1404.73;500.23;;;8.20;99.90;;;;;;5138850;27;20187;-85
2023/10/19 06:01:31;;;;;;;1371.73;489.90;;;8.20;99.90;;;;;;5158315;27;20419;-83
2023/10/19 06:03:57;;;;;;;1372.10;487.17;;;8.60;99.90;;;;;;5157942;27;20112;-82
2023/10/19 06:06:22;;;;;;;1371.30;488.97;;;8.70;99.90;;;;;;5135885;27;20039;-83
2023/10/19 06:08:53;;;;;;;1353.40;484.37;;;8.10;99.90;;;;;;5146491;27;20242;-83
2023/10/19 06:11:19;;;;;;;1413.13;507.90;;;7.80;99.90;;;;;;5156126;27;20054;-84
2023/10/19 06:13:45;;;;;;;1405.60;493.83;;;7.90;99.90;;;;;;5157880;27;20061;-83
2023/10/19 06:16:11;;;;;;;1406.20;496.97;;;8.60;99.90;;;;;;5157703;27;20498;-83
2023/10/19 06:18:37;;;;;;;1366.13;486.00;;;8.50;99.90;;;;;;5138997;27;20039;-85
2023/10/19 06:21:04;;;;;;;1399.90;491.37;;;7.80;99.90;;;;;;5156642;27;20129;-83
2023/10/19 06:23:31;;;;;;;1414.47;506.87;;;7.90;99.90;;;;;;5140385;27;20491;-83
2023/10/19 06:25:57;;;;;;;1406.97;502.67;;;7.90;99.90;;;;;;5136946;27;20093;-83
2023/10/19 06:28:23;;;;;;;1415.17;502.97;;;7.90;99.90;;;;;;5135872;27;20126;-84
2023/10/19 06:30:50;;;;;;;1357.93;482.30;;;8.50;99.90;;;;;;5119158;27;20074;-83
2023/10/19 06:33:16;;;;;;;1356.17;482.60;;;8.10;99.90;;;;;;5137503;27;20072;-83
2023/10/19 06:35:42;;;;;;;1335.87;476.20;;;7.90;99.90;;;;;;5136608;27;20089;-83
2023/10/19 06:38:09;;;;;;;1350.87;479.33;;;7.90;99.90;;;;;;5135042;27;20047;-84
2023/10/19 06:40:38;;;;;;;1399.97;496.97;;;7.90;99.90;;;;;;5118417;27;20042;-82
2023/10/19 06:43:05;;;;;;;1394.13;501.53;;;7.90;99.90;;;;;;5135552;27;20437;-83
2023/10/19 06:45:31;;;;;;;1396.17;496.97;;;7.90;99.90;;;;;;5135302;27;20049;-84
2023/10/19 06:47:59;;;;;;;1402.07;494.70;;;8.30;99.90;;;;;;5135864;27;20434;-83
2023/10/19 06:50:26;;;;;;;1397.50;496.13;;;8.00;99.90;;;;;;5134893;27;20442;-84
2023/10/19 06:52:52;;;;;;;1398.37;494.13;;;7.90;99.90;;;;;;5134832;27;20046;-84
2023/10/19 06:55:22;;;;;;;1330.60;477.10;;;7.90;99.90;;;;;;5147581;27;20047;-84
2023/10/19 06:57:58;;;;;;;1335.20;472.47;;;7.90;99.90;;;;;;5135011;27;20376;-84
2023/10/19 07:00:26;;;;;;;1384.13;485.00;;;8.80;99.90;;;;;;5136214;27;20035;-86
2023/10/19 07:02:55;;;;;;;1327.43;472.97;;;8.50;99.90;;;;;;5135785;27;20074;-86
2023/10/19 07:05:23;;;;;;;1321.53;476.77;;;8.90;99.90;;;;;;5134773;27;20042;-86
2023/10/19 07:07:51;;;;;;;1381.70;504.47;;;7.90;99.90;;;;;;5134679;27;20043;-86
2023/10/19 07:10:18;;;;;;;1311.90;472.67;;;8.50;99.90;;;;;;5134640;27;20074;-85
2023/10/19 07:12:50;;;;;;;1317.63;471.20;;;8.00;99.90;;;;;;5134529;27;20051;-85
2023/10/19 07:15:18;;;;;;;1389.77;498.87;;;8.00;99.90;;;;;;5135606;27;20038;-87
2023/10/19 07:17:46;;;;;;;1328.37;472.93;;;8.00;99.90;;;;;;5135781;27;20407;-86
2023/10/19 07:20:25;;;;;;;1310.50;467.33;;;8.00;99.90;;;;;;5134464;27;20277;-85
2023/10/19 07:22:55;;;;;;;1317.47;473.23;;;8.00;99.90;;;;;;5134111;27;20074;-84
2023/10/19 07:25:21;;;;;;;1318.17;465.90;;;8.60;99.90;;;;;;5135547;27;20380;-85
2023/10/19 07:27:49;;;;;;;1390.63;509.70;;;8.00;99.90;;;;;;5117036;27;20487;-84
2023/10/19 07:30:20;;;;;;;1384.43;501.70;;;8.00;99.90;;;;;;5135409;27;20039;-85
2023/10/19 07:32:46;;;;;;;1314.47;470.10;;;7.90;99.90;;;;;;5134178;27;20400;-85
2023/10/19 07:35:12;;;;;;;1309.90;470.40;;;8.80;99.90;;;;;;5133769;27;20079;-84
2023/10/19 07:37:38;;;;;;;1395.43;510.63;;;8.00;99.90;;;;;;5135270;27;20031;-85
2023/10/19 07:40:05;;;;;;;1387.93;499.37;;;8.00;99.90;;;;;;5135367;27;20122;-86
2023/10/19 07:42:32;;;;;;;1311.20;469.37;;;8.00;99.90;;;;;;5135497;27;20043;-86
2023/10/19 07:44:59;;;;;;;1384.33;500.07;;;8.20;99.90;;;;;;5135352;27;20514;-86
2023/10/19 07:47:25;;;;;;;1389.13;498.57;;;8.50;99.90;;;;;;5134979;27;20043;-86
2023/10/19 07:49:52;;;;;;;1323.07;471.13;;;8.00;99.90;;;;;;5134019;27;20046;-87
2023/10/19 07:52:18;;;;;;;1388.27;490.50;;;8.40;99.90;;;;;;5133674;27;20054;-86
2023/10/19 07:54:45;;;;;;;1321.73;471.80;;;8.00;99.90;;;;;;5133729;27;20058;-86
2023/10/19 07:57:12;;;;;;;1335.43;481.23;;;8.00;99.90;;;;;;5135031;27;20066;-86
2023/10/19 07:59:38;;;;;;;1383.03;507.60;;;8.50;99.90;;;;;;5133468;27;20122;-86
2023/10/19 08:02:04;;;;;;;1304.83;468.73;;;8.40;99.90;;;;;;5133176;27;20151;-85
2023/10/19 08:04:31;;;;;;;1303.63;466.57;;;8.80;99.90;;;;;;5133898;27;20046;-84
2023/10/19 08:06:58;;;;;;;1394.03;506.50;;;8.20;99.90;;;;;;5134307;27;20104;-86
2023/10/19 08:09:26;;;;;;;1324.03;470.63;;;8.00;99.90;;;;;;5116598;27;20373;-84
2023/10/19 08:11:55;;;;;;;1317.73;472.17;;;8.20;99.90;;;;;;5116130;27;20066;-86
2023/10/19 08:14:24;;;;;;;1319.20;470.77;;;8.30;99.90;;;;;;5134680;27;20112;-86
2023/10/19 08:16:50;;;;;;;1387.53;505.80;;;8.00;99.90;;;;;;5134571;27;20442;-85
2023/10/19 08:19:16;;;;;;;1315.57;476.93;;;8.00;99.90;;;;;;5133164;27;20101;-86
2023/10/19 08:21:42;;;;;;;1320.67;474.23;;;8.10;99.90;;;;;;5133043;27;20039;-86
2023/10/19 08:24:13;;;;;;;1318.13;475.63;;;8.40;99.90;;;;;;5133994;27;20113;-86
2023/10/19 08:26:42;;;;;;;1388.53;500.50;;;8.00;99.90;;;;;;5134127;27;20039;-86
2023/10/19 08:29:15;;;;;;;1319.20;476.10;;;8.30;99.90;;;;;;5132775;27;20054;-87
2023/10/19 08:31:41;;;;;;;1327.73;478.13;;;8.00;99.90;;;;;;5115772;27;20046;-86
2023/10/19 08:34:11;;;;;;;1323.57;476.60;;;8.10;99.90;;;;;;5132686;27;20096;-86
2023/10/19 08:36:37;;;;;;;1328.20;477.70;;;8.60;99.90;;;;;;5133001;27;20031;-84
2023/10/19 08:39:07;;;;;;;1390.13;509.33;;;8.90;99.90;;;;;;5132823;27;20043;-86
2023/10/19 08:41:35;;;;;;;1383.50;502.27;;;8.10;99.90;;;;;;5132450;27;20043;-87
2023/10/19 08:44:10;;;;;;;1323.13;477.37;;;8.10;99.90;;;;;;5134148;27;20070;-85
2023/10/19 08:46:47;;;;;;;1287.22;470.83;;;8.10;99.90;;;;;;5133950;27;20049;-84
2023/10/19 08:49:15;;;;;;;1384.10;509.27;;;8.80;99.90;;;;;;5134173;27;20043;-85
2023/10/19 08:51:46;;;;;;;1389.40;494.57;;;8.40;99.90;;;;;;5132576;27;20039;-84
2023/10/19 08:54:13;;;;;;;1391.20;506.67;;;8.00;99.90;;;;;;5132483;27;20046;-84
2023/10/19 08:56:41;;;;;;;1339.70;480.57;;;8.60;99.90;;;;;;5133925;27;20101;-84
2023/10/19 08:59:15;;;;;;;1336.47;476.17;;;7.90;99.90;;;;;;5132088;27;20536;-84
2023/10/19 09:01:44;;;;;;;1403.40;502.27;;;8.70;99.90;;;;;;5133882;27;20398;-84
2023/10/19 09:04:11;;;;;;;1341.03;481.73;;;8.10;99.90;;;;;;5133378;27;20046;-84
2023/10/19 09:06:45;;;;;;;1403.70;505.00;;;8.90;99.90;;;;;;5133699;27;20399;-84
2023/10/19 09:09:21;;;;;;;1390.20;493.00;;;8.90;99.90;;;;;;5132446;27;20045;-85
2023/10/19 09:11:52;;;;;;;1333.87;477.70;;;8.20;99.90;;;;;;5131629;27;20100;-85
2023/10/19 09:14:33;;;;;;;1401.07;504.90;;;9.00;99.90;;;;;;5133736;27;20051;-86
2023/10/19 09:17:00;;;;;;;1399.60;500.33;;;8.20;99.90;;;;;;5131730;27;20556;-87
2023/10/19 09:19:48;;;;;;;1409.87;507.30;;;8.60;99.90;;;;;;5133532;28;20051;-86
2023/10/19 09:22:22;;;;;;;1403.60;504.80;;;8.20;99.90;;;;;;5133288;28;20388;-87
2023/10/19 09:24:55;;;;;;;1415.00;505.27;;;8.40;99.90;;;;;;5132361;28;20043;-86
2023/10/19 09:27:21;;;;;;;1357.17;485.83;;;9.00;99.90;;;;;;5133566;28;20047;-86
2023/10/19 09:29:48;;;;;;;1403.93;507.63;;;8.20;99.90;;;;;;5133529;28;20391;-86
2023/10/19 09:32:14;;;;;;;1361.80;484.70;;;8.30;99.90;;;;;;5131696;28;20047;-85
2023/10/19 09:34:43;;;;;;;1351.57;483.63;;;8.20;99.90;;;;;;5131909;28;20126;-86
2023/10/19 09:37:11;;;;;;;1405.67;507.43;;;8.30;99.90;;;;;;5133058;28;20081;-85
2023/10/19 09:39:37;;;;;;;1405.73;508.47;;;9.20;99.90;;;;;;5132444;28;20043;-84
2023/10/19 09:42:06;;;;;;;1354.20;490.80;;;8.30;99.90;;;;;;5132196;28;20049;-84
2023/10/19 09:44:43;;;;;;;1363.03;487.07;;;8.30;99.90;;;;;;5132117;28;20114;-85
2023/10/19 09:47:23;;;;;;;1401.70;513.03;;;8.30;99.90;;;;;;5131883;28;20051;-85
2023/10/19 09:49:50;;;;;;;1354.80;488.93;;;8.80;99.90;;;;;;5131873;28;20211;-85
2023/10/19 09:52:17;;;;;;;1400.20;522.77;;;8.80;99.90;;;;;;5131735;28;20099;-84
2023/10/19 09:54:57;;;;;;;1350.53;494.70;;;8.20;99.90;;;;;;5132061;28;20043;-85
2023/10/19 09:57:51;;;;;;;1395.90;526.07;;;8.40;99.90;;;;;;5133158;28;20111;-84
2023/10/19 10:00:23;;;;;;;1356.57;496.87;;;8.40;99.90;;;;;;5097747;28;20507;-83
2023/10/19 10:02:49;;;;;;;1373.27;498.23;;;8.50;99.90;;;;;;5132079;28;20047;-84
2023/10/19 10:05:43;;;;;;;1393.37;523.17;;;9.40;99.90;;;;;;5133066;27;20118;-84
2023/10/19 10:08:17;;;;;;;1397.63;520.70;;;8.50;99.90;;;;;;5133134;28;20123;-85
2023/10/19 10:10:47;;;;;;;1386.00;511.70;;;9.30;99.90;;;;;;5131250;28;20055;-85
2023/10/19 10:13:28;;;;;;;1404.77;508.07;;;9.20;99.90;;;;;;5112571;28;20050;-84
2023/10/19 10:15:58;;;;;;;1412.47;507.73;;;9.00;99.90;;;;;;5112531;28;20054;-84
2023/10/19 10:18:24;;;;;;;1411.47;505.60;;;8.80;99.90;;;;;;5112489;28;20043;-84
2023/10/19 10:21:18;;;;;;;1357.03;483.07;;;8.50;99.90;;;;;;5112426;28;20058;-84
2023/10/19 10:23:55;;;;;;;1351.93;482.97;;;8.60;99.90;;;;;;5116664;27;20055;-87
2023/10/19 10:26:25;;;;;;;1332.07;479.03;;;8.60;99.90;;;;;;5118244;27;20049;-91
2023/10/19 10:29:11;;;;;;;1355.33;483.23;;;9.00;99.90;;;;;;5136840;27;20047;-87
2023/10/19 10:31:41;;;;;;;;;;;8.60;99.90;;;;;;5137718;27;20044;-87
2023/10/19 10:34:09;;;;;;;1398.00;507.33;;;8.60;99.90;;;;;;5154029;27;19919;-84
2023/10/19 10:36:57;;;;;;;1414.47;512.87;;;8.60;99.90;;;;;;5114042;28;20044;-86
2023/10/19 10:39:25;;;;;;;1353.17;483.50;;;8.60;99.90;;;;;;5114548;28;20047;-87
2023/10/19 10:41:59;;;;;;;1356.70;485.40;;;8.90;99.90;;;;;;5114584;28;20134;-85
2023/10/19 10:44:44;;;;;;;1408.37;511.57;;;8.60;99.90;;;;;;5133845;27;20039;-86
2023/10/19 10:47:16;;;;;;;1402.77;512.90;;;8.60;99.90;;;;;;5136843;27;20082;-86
2023/10/19 10:49:56;;;;;;;1345.17;480.03;;;8.60;99.90;;;;;;5143510;27;20586;-86
2023/10/19 10:52:28;;;;;;;1345.57;477.73;;;8.60;99.90;;;;;;5129640;27;20273;-86
2023/10/19 10:54:55;;;;;;;1405.10;509.50;;;8.60;99.90;;;;;;5155735;27;20103;-86
2023/10/19 10:57:21;;;;;;;1353.47;484.60;;;9.10;99.90;;;;;;5149136;27;20031;-88
2023/10/19 10:59:46;;;;;;;1403.97;511.93;;;8.60;99.90;;;;;;5136007;27;20043;-86
2023/10/19 11:02:20;;;;;;;1370.67;490.90;;;9.00;99.90;;;;;;5135189;27;20121;-85
2023/10/19 11:04:46;;;;;;;1411.13;516.40;;;9.40;99.90;;;;;;5148693;27;20042;-86
2023/10/19 11:07:19;;;;;;;1341.60;484.20;;;8.60;99.90;;;;;;5135604;27;20526;-86
2023/10/19 11:09:48;;;;;;;1406.70;510.87;;;9.20;99.90;;;;;;5135603;27;20079;-85
2023/10/19 11:12:19;;;;;;;1409.97;515.90;;;8.70;99.90;;;;;;5110501;27;20055;-85
2023/10/19 11:14:54;;;;;;;1407.37;511.30;;;8.60;99.90;;;;;;5077105;28;20119;-86
2023/10/19 11:17:27;;;;;;;1410.18;507.45;;;8.90;99.90;;;;;;5107969;28;20039;-87
2023/10/19 11:19:56;;;;;;;1365.37;486.73;;;8.70;99.90;;;;;;5103635;28;20044;-86
2023/10/19 11:22:22;;;;;;;1410.77;512.63;;;8.80;99.90;;;;;;5089435;28;20036;-85
2023/10/19 11:24:50;;;;;;;1348.07;486.03;;;8.70;99.90;;;;;;5094530;28;20511;-84
2023/10/19 11:27:26;;;;;;;1359.30;481.53;;;9.40;99.90;;;;;;5082587;28;20084;-84
2023/10/19 11:29:56;;;;;;;1407.60;517.83;;;8.60;99.90;;;;;;5076534;28;20097;-84
2023/10/19 11:32:25;;;;;;;1402.27;511.63;;;8.60;99.90;;;;;;5059637;28;20058;-84
2023/10/19 11:34:54;;;;;;;1333.27;483.70;;;9.30;99.90;;;;;;5094053;28;20526;-84
2023/10/19 11:37:20;;;;;;;1334.97;482.27;;;8.30;99.90;;;;;;5094105;28;20571;-85
2023/10/19 11:39:46;;;;;;;1402.70;515.07;;;9.10;99.90;;;;;;5091161;28;20126;-85
2023/10/19 11:42:12;;;;;;;1404.87;517.67;;;9.50;99.90;;;;;;5112886;28;20392;-86
2023/10/19 11:44:38;;;;;;;1337.93;481.73;;;8.80;99.90;;;;;;5114668;28;20047;-85
2023/10/19 11:47:03;;;;;;;1341.47;488.27;;;9.40;99.90;;;;;;5096537;28;20035;-85
2023/10/19 11:49:29;;;;;;;1403.30;514.40;;;8.60;99.90;;;;;;5114571;28;20039;-84
2023/10/19 11:51:55;;;;;;;1344.07;483.70;;;9.50;99.90;;;;;;5114652;28;20043;-85
2023/10/19 11:54:21;;;;;;;1349.60;483.40;;;9.40;99.90;;;;;;5096273;28;20051;-85
2023/10/19 11:56:48;;;;;;;1355.13;487.70;;;9.00;99.90;;;;;;5096267;28;20134;-85
2023/10/19 11:59:15;;;;;;;1411.93;517.67;;;8.60;99.90;;;;;;5114274;28;20042;-84
2023/10/19 12:01:41;;;;;;;1358.37;487.37;;;8.80;99.90;;;;;;5113779;28;20055;-85
2023/10/19 12:04:06;;;;;;;1364.50;489.63;;;9.00;99.90;;;;;;5095872;28;20453;-85
2023/10/19 12:06:32;;;;;;;1350.33;488.13;;;8.60;99.90;;;;;;5095610;28;20043;-85
2023/10/19 12:09:02;;;;;;;1348.77;482.60;;;8.90;99.90;;;;;;5114484;28;20043;-85
2023/10/19 12:11:28;;;;;;;1368.77;494.87;;;8.90;99.90;;;;;;5125864;27;20055;-84
2023/10/19 12:13:54;;;;;;;1356.20;485.97;;;9.40;99.90;;;;;;5134054;27;20043;-85
2023/10/19 12:16:21;;;;;;;1415.93;514.30;;;9.30;99.90;;;;;;5115600;27;20148;-85
2023/10/19 12:18:48;;;;;;;1349.97;483.97;;;9.40;99.90;;;;;;5134370;27;20091;-85
2023/10/19 12:21:14;;;;;;;1370.27;490.80;;;8.90;99.90;;;;;;5116000;27;20116;-85
2023/10/19 12:23:44;;;;;;;1379.30;495.60;;;9.20;99.90;;;;;;5114755;27;20113;-85
2023/10/19 12:26:14;;;;;;;1363.63;491.67;;;9.50;99.90;;;;;;5115589;27;20475;-84
2023/10/19 12:28:41;;;;;;;1351.87;487.30;;;8.80;99.90;;;;;;5134065;27;20043;-84
2023/10/19 12:31:10;;;;;;;1406.57;521.97;;;8.90;99.90;;;;;;5115955;27;20130;-84
2023/10/19 12:33:38;;;;;;;1343.80;483.90;;;8.90;99.90;;;;;;5116049;27;20046;-83
2023/10/19 12:36:24;;;;;;;1400.83;512.67;;;8.70;99.90;;;;;;5133461;27;20031;-84
2023/10/19 12:38:51;;;;;;;;;;;8.70;99.90;;;;;;5115963;27;20047;-84
2023/10/19 12:41:17;;;;;;;1345.83;485.27;;;9.40;99.90;;;;;;5098635;27;19919;-85